sensor_id;sensor_type;location;lat;lon;timestamp;temperature;humidity
51567;DHT22;37657;53.182;5.638;2023-04-01T00:01:58;10.50;99.90
51567;DHT22;37657;53.182;5.638;2023-04-01T00:04:23;10.50;99.90
51567;DHT22;37657;53.182;5.638;2023-04-01T00:06:49;10.80;99.90
51567;DHT22;37657;53.182;5.638;2023-04-01T00:09:15;11.10;99.90
51567;DHT22;37657;53.182;5.638;2023-04-01T00:11:40;10.80;99.90
51567;DHT22;37657;53.182;5.638;2023-04-01T00:14:07;11.00;99.90
51567;DHT22;37657;53.182;5.638;2023-04-01T00:16:33;10.50;99.90
51567;DHT22;37657;53.182;5.638;2023-04-01T00:18:59;11.10;99.90
51567;DHT22;37657;53.182;5.638;2023-04-01T00:21:25;11.00;99.90
51567;DHT22;37657;53.182;5.638;2023-04-01T00:23:51;11.00;99.90
51567;DHT22;37657;53.182;5.638;2023-04-01T00:26:17;10.90;99.90
51567;DHT22;37657;53.182;5.638;2023-04-01T00:28:45;10.80;99.90
51567;DHT22;37657;53.182;5.638;2023-04-01T00:31:11;10.40;99.90
51567;DHT22;37657;53.182;5.638;2023-04-01T00:33:37;11.00;99.90
51567;DHT22;37657;53.182;5.638;2023-04-01T00:36:13;10.60;99.90
51567;DHT22;37657;53.182;5.638;2023-04-01T00:38:39;10.90;99.90
51567;DHT22;37657;53.182;5.638;2023-04-01T00:41:05;10.50;99.90
51567;DHT22;37657;53.182;5.638;2023-04-01T00:43:31;10.50;99.90
51567;DHT22;37657;53.182;5.638;2023-04-01T00:45:57;10.60;99.90
51567;DHT22;37657;53.182;5.638;2023-04-01T00:48:26;10.40;99.90
51567;DHT22;37657;53.182;5.638;2023-04-01T00:51:01;10.40;99.90
51567;DHT22;37657;53.182;5.638;2023-04-01T00:53:28;10.70;99.90
51567;DHT22;37657;53.182;5.638;2023-04-01T00:56:07;10.40;99.90
51567;DHT22;37657;53.182;5.638;2023-04-01T00:58:40;10.80;99.90
51567;DHT22;37657;53.182;5.638;2023-04-01T01:01:08;10.60;99.90
51567;DHT22;37657;53.182;5.638;2023-04-01T01:03:34;10.30;99.90
51567;DHT22;37657;53.182;5.638;2023-04-01T01:06:16;10.80;99.90
51567;DHT22;37657;53.182;5.638;2023-04-01T01:11:32;10.30;99.90
51567;DHT22;37657;53.182;5.638;2023-04-01T01:16:46;10.70;99.90
51567;DHT22;37657;53.182;5.638;2023-04-01T01:19:38;10.40;99.90
51567;DHT22;37657;53.182;5.638;2023-04-01T01:22:45;10.80;99.90
51567;DHT22;37657;53.182;5.638;2023-04-01T01:25:30;11.00;99.90
51567;DHT22;37657;53.182;5.638;2023-04-01T01:28:21;10.50;99.90
51567;DHT22;37657;53.182;5.638;2023-04-01T01:31:19;10.80;99.90
51567;DHT22;37657;53.182;5.638;2023-04-01T01:36:45;10.30;99.90
51567;DHT22;37657;53.182;5.638;2023-04-01T01:39:14;10.50;99.90
51567;DHT22;37657;53.182;5.638;2023-04-01T01:41:42;10.50;99.90
51567;DHT22;37657;53.182;5.638;2023-04-01T01:44:09;10.70;99.90
51567;DHT22;37657;53.182;5.638;2023-04-01T01:46:38;10.30;99.90
51567;DHT22;37657;53.182;5.638;2023-04-01T01:49:05;10.30;99.90
51567;DHT22;37657;53.182;5.638;2023-04-01T01:51:31;10.70;99.90
51567;DHT22;37657;53.182;5.638;2023-04-01T01:53:57;10.10;99.90
51567;DHT22;37657;53.182;5.638;2023-04-01T01:56:25;10.80;99.90
51567;DHT22;37657;53.182;5.638;2023-04-01T01:58:56;10.50;99.90
51567;DHT22;37657;53.182;5.638;2023-04-01T02:01:25;10.20;99.90
51567;DHT22;37657;53.182;5.638;2023-04-01T02:03:52;10.50;99.90
51567;DHT22;37657;53.182;5.638;2023-04-01T02:06:21;10.30;99.90
51567;DHT22;37657;53.182;5.638;2023-04-01T02:08:55;10.70;99.90
51567;DHT22;37657;53.182;5.638;2023-04-01T02:11:34;10.70;99.90
51567;DHT22;37657;53.182;5.638;2023-04-01T02:14:14;10.10;99.90
51567;DHT22;37657;53.182;5.638;2023-04-01T02:19:07;10.70;99.90
51567;DHT22;37657;53.182;5.638;2023-04-01T02:21:34;10.10;99.90
51567;DHT22;37657;53.182;5.638;2023-04-01T02:24:02;10.60;99.90
51567;DHT22;37657;53.182;5.638;2023-04-01T02:26:29;10.50;99.90
51567;DHT22;37657;53.182;5.638;2023-04-01T02:28:56;10.10;99.90
51567;DHT22;37657;53.182;5.638;2023-04-01T02:31:23;10.30;99.90
51567;DHT22;37657;53.182;5.638;2023-04-01T02:33:49;10.30;99.90
51567;DHT22;37657;53.182;5.638;2023-04-01T02:36:16;10.50;99.90
51567;DHT22;37657;53.182;5.638;2023-04-01T02:38:44;10.30;99.90
51567;DHT22;37657;53.182;5.638;2023-04-01T02:41:10;10.70;99.90
51567;DHT22;37657;53.182;5.638;2023-04-01T02:43:36;10.50;99.90
51567;DHT22;37657;53.182;5.638;2023-04-01T02:46:02;10.40;99.90
51567;DHT22;37657;53.182;5.638;2023-04-01T02:48:28;10.30;99.90
51567;DHT22;37657;53.182;5.638;2023-04-01T02:50:54;10.70;99.90
51567;DHT22;37657;53.182;5.638;2023-04-01T02:53:20;10.50;99.90
51567;DHT22;37657;53.182;5.638;2023-04-01T02:55:45;10.70;99.90
51567;DHT22;37657;53.182;5.638;2023-04-01T02:58:11;10.10;99.90
51567;DHT22;37657;53.182;5.638;2023-04-01T03:00:37;10.30;99.90
51567;DHT22;37657;53.182;5.638;2023-04-01T03:03:03;10.10;99.90
51567;DHT22;37657;53.182;5.638;2023-04-01T03:05:29;10.80;99.90
51567;DHT22;37657;53.182;5.638;2023-04-01T03:07:55;10.30;99.90
51567;DHT22;37657;53.182;5.638;2023-04-01T03:10:21;10.80;99.90
51567;DHT22;37657;53.182;5.638;2023-04-01T03:12:46;10.80;99.90
51567;DHT22;37657;53.182;5.638;2023-04-01T03:15:13;10.10;99.90
51567;DHT22;37657;53.182;5.638;2023-04-01T03:17:41;10.90;99.90
51567;DHT22;37657;53.182;5.638;2023-04-01T03:20:08;10.50;99.90
51567;DHT22;37657;53.182;5.638;2023-04-01T03:22:34;10.40;99.90
51567;DHT22;37657;53.182;5.638;2023-04-01T03:25:01;10.90;99.90
51567;DHT22;37657;53.182;5.638;2023-04-01T03:27:26;10.80;99.90
51567;DHT22;37657;53.182;5.638;2023-04-01T03:29:52;10.60;99.90
51567;DHT22;37657;53.182;5.638;2023-04-01T03:32:17;10.70;99.90
51567;DHT22;37657;53.182;5.638;2023-04-01T03:34:43;10.80;99.90
51567;DHT22;37657;53.182;5.638;2023-04-01T03:37:09;10.90;99.90
51567;DHT22;37657;53.182;5.638;2023-04-01T03:39:34;10.10;99.90
51567;DHT22;37657;53.182;5.638;2023-04-01T03:42:00;10.50;99.90
51567;DHT22;37657;53.182;5.638;2023-04-01T03:44:26;10.30;99.90
51567;DHT22;37657;53.182;5.638;2023-04-01T03:46:55;10.20;99.90
51567;DHT22;37657;53.182;5.638;2023-04-01T03:49:21;10.70;99.90
51567;DHT22;37657;53.182;5.638;2023-04-01T03:51:46;10.90;99.90
51567;DHT22;37657;53.182;5.638;2023-04-01T03:54:12;10.10;99.90
51567;DHT22;37657;53.182;5.638;2023-04-01T03:56:37;10.30;99.90
51567;DHT22;37657;53.182;5.638;2023-04-01T03:59:05;10.90;99.90
51567;DHT22;37657;53.182;5.638;2023-04-01T04:01:30;10.30;99.90
51567;DHT22;37657;53.182;5.638;2023-04-01T04:03:56;10.70;99.90
51567;DHT22;37657;53.182;5.638;2023-04-01T04:06:23;10.80;99.90
51567;DHT22;37657;53.182;5.638;2023-04-01T04:08:49;10.30;99.90
51567;DHT22;37657;53.182;5.638;2023-04-01T04:11:15;10.60;99.90
51567;DHT22;37657;53.182;5.638;2023-04-01T04:13:42;10.20;99.90
51567;DHT22;37657;53.182;5.638;2023-04-01T04:16:08;10.30;99.90
51567;DHT22;37657;53.182;5.638;2023-04-01T04:18:35;10.50;99.90
51567;DHT22;37657;53.182;5.638;2023-04-01T04:21:01;10.80;99.90
51567;DHT22;37657;53.182;5.638;2023-04-01T04:23:27;10.20;99.90
51567;DHT22;37657;53.182;5.638;2023-04-01T04:26:01;10.80;99.90
51567;DHT22;37657;53.182;5.638;2023-04-01T04:28:27;10.00;99.90
51567;DHT22;37657;53.182;5.638;2023-04-01T04:30:54;10.00;99.90
51567;DHT22;37657;53.182;5.638;2023-04-01T04:33:20;10.60;99.90
51567;DHT22;37657;53.182;5.638;2023-04-01T04:35:46;10.00;99.90
51567;DHT22;37657;53.182;5.638;2023-04-01T04:38:11;10.10;99.90
51567;DHT22;37657;53.182;5.638;2023-04-01T04:40:38;10.80;99.90
51567;DHT22;37657;53.182;5.638;2023-04-01T04:43:04;10.70;99.90
51567;DHT22;37657;53.182;5.638;2023-04-01T04:45:30;10.20;99.90
51567;DHT22;37657;53.182;5.638;2023-04-01T04:47:56;10.10;99.90
51567;DHT22;37657;53.182;5.638;2023-04-01T04:50:22;10.80;99.90
51567;DHT22;37657;53.182;5.638;2023-04-01T04:52:47;10.20;99.90
51567;DHT22;37657;53.182;5.638;2023-04-01T04:55:13;10.00;99.90
51567;DHT22;37657;53.182;5.638;2023-04-01T04:57:40;10.80;99.90
51567;DHT22;37657;53.182;5.638;2023-04-01T05:00:06;10.30;99.90
51567;DHT22;37657;53.182;5.638;2023-04-01T05:02:33;10.60;99.90
51567;DHT22;37657;53.182;5.638;2023-04-01T05:04:58;10.80;99.90
51567;DHT22;37657;53.182;5.638;2023-04-01T05:07:24;10.70;99.90
51567;DHT22;37657;53.182;5.638;2023-04-01T05:09:49;10.20;99.90
51567;DHT22;37657;53.182;5.638;2023-04-01T05:12:15;10.10;99.90
51567;DHT22;37657;53.182;5.638;2023-04-01T05:14:40;10.00;99.90
51567;DHT22;37657;53.182;5.638;2023-04-01T05:17:10;10.30;99.90
51567;DHT22;37657;53.182;5.638;2023-04-01T05:19:36;10.80;99.90
51567;DHT22;37657;53.182;5.638;2023-04-01T05:22:02;10.40;99.90
51567;DHT22;37657;53.182;5.638;2023-04-01T05:24:27;10.50;99.90
51567;DHT22;37657;53.182;5.638;2023-04-01T05:26:53;10.10;99.90
51567;DHT22;37657;53.182;5.638;2023-04-01T05:29:18;10.10;99.90
51567;DHT22;37657;53.182;5.638;2023-04-01T05:31:44;10.40;99.90
51567;DHT22;37657;53.182;5.638;2023-04-01T05:34:09;10.80;99.90
51567;DHT22;37657;53.182;5.638;2023-04-01T05:36:36;10.30;99.90
51567;DHT22;37657;53.182;5.638;2023-04-01T05:39:02;10.40;99.90
51567;DHT22;37657;53.182;5.638;2023-04-01T05:41:27;10.10;99.90
51567;DHT22;37657;53.182;5.638;2023-04-01T05:43:53;10.00;99.90
51567;DHT22;37657;53.182;5.638;2023-04-01T05:46:19;10.20;99.90
51567;DHT22;37657;53.182;5.638;2023-04-01T05:48:44;10.20;99.90
51567;DHT22;37657;53.182;5.638;2023-04-01T05:51:14;10.40;99.90
51567;DHT22;37657;53.182;5.638;2023-04-01T05:53:40;10.60;99.90
51567;DHT22;37657;53.182;5.638;2023-04-01T05:56:06;10.10;99.90
51567;DHT22;37657;53.182;5.638;2023-04-01T05:58:33;10.70;99.90
51567;DHT22;37657;53.182;5.638;2023-04-01T06:01:10;10.40;99.90
51567;DHT22;37657;53.182;5.638;2023-04-01T06:03:36;10.70;99.90
51567;DHT22;37657;53.182;5.638;2023-04-01T06:06:02;10.20;99.90
51567;DHT22;37657;53.182;5.638;2023-04-01T06:08:30;10.10;99.90
51567;DHT22;37657;53.182;5.638;2023-04-01T06:14:28;10.30;99.90
51567;DHT22;37657;53.182;5.638;2023-04-01T06:17:24;10.30;99.90
51567;DHT22;37657;53.182;5.638;2023-04-01T06:19:54;10.40;99.90
51567;DHT22;37657;53.182;5.638;2023-04-01T06:28:29;10.60;99.90
51567;DHT22;37657;53.182;5.638;2023-04-01T06:36:21;10.60;99.90
51567;DHT22;37657;53.182;5.638;2023-04-01T06:39:12;10.30;99.90
51567;DHT22;37657;53.182;5.638;2023-04-01T06:47:14;10.00;99.90
51567;DHT22;37657;53.182;5.638;2023-04-01T06:55:05;10.90;99.90
51567;DHT22;37657;53.182;5.638;2023-04-01T06:57:57;10.80;99.90
51567;DHT22;37657;53.182;5.638;2023-04-01T07:00:30;10.10;99.90
51567;DHT22;37657;53.182;5.638;2023-04-01T07:03:00;10.90;99.90
51567;DHT22;37657;53.182;5.638;2023-04-01T07:05:35;10.50;99.90
51567;DHT22;37657;53.182;5.638;2023-04-01T07:08:12;10.80;99.90
51567;DHT22;37657;53.182;5.638;2023-04-01T07:16:36;10.80;99.90
51567;DHT22;37657;53.182;5.638;2023-04-01T07:19:12;10.50;99.90
51567;DHT22;37657;53.182;5.638;2023-04-01T07:21:44;10.80;99.90
51567;DHT22;37657;53.182;5.638;2023-04-01T07:24:25;11.00;99.90
51567;DHT22;37657;53.182;5.638;2023-04-01T07:26:55;10.30;99.90
51567;DHT22;37657;53.182;5.638;2023-04-01T07:29:22;11.00;99.90
51567;DHT22;37657;53.182;5.638;2023-04-01T07:35:08;11.10;99.90
51567;DHT22;37657;53.182;5.638;2023-04-01T07:38:06;10.90;99.90
51567;DHT22;37657;53.182;5.638;2023-04-01T07:40:53;10.50;99.90
51567;DHT22;37657;53.182;5.638;2023-04-01T07:43:22;10.20;99.90
51567;DHT22;37657;53.182;5.638;2023-04-01T07:46:11;10.90;99.90
51567;DHT22;37657;53.182;5.638;2023-04-01T07:53:49;10.80;99.90
51567;DHT22;37657;53.182;5.638;2023-04-01T07:56:36;10.50;99.90
51567;DHT22;37657;53.182;5.638;2023-04-01T08:02:21;10.30;99.90
51567;DHT22;37657;53.182;5.638;2023-04-01T08:08:08;10.30;99.90
51567;DHT22;37657;53.182;5.638;2023-04-01T08:16:29;10.60;99.90
51567;DHT22;37657;53.182;5.638;2023-04-01T08:19:34;11.20;99.90
51567;DHT22;37657;53.182;5.638;2023-04-01T08:22:14;10.90;99.90
51567;DHT22;37657;53.182;5.638;2023-04-01T08:24:46;11.30;99.90
51567;DHT22;37657;53.182;5.638;2023-04-01T08:30:21;10.50;99.90
51567;DHT22;37657;53.182;5.638;2023-04-01T08:32:58;11.10;99.90
51567;DHT22;37657;53.182;5.638;2023-04-01T08:35:29;10.60;99.90
51567;DHT22;37657;53.182;5.638;2023-04-01T08:38:01;10.80;99.90
51567;DHT22;37657;53.182;5.638;2023-04-01T08:48:54;11.20;99.90
51567;DHT22;37657;53.182;5.638;2023-04-01T08:51:53;10.80;99.90
51567;DHT22;37657;53.182;5.638;2023-04-01T08:57:45;10.60;99.90
51567;DHT22;37657;53.182;5.638;2023-04-01T09:06:05;10.80;99.90
51567;DHT22;37657;53.182;5.638;2023-04-01T09:17:24;11.40;99.90
51567;DHT22;37657;53.182;5.638;2023-04-01T09:20:05;11.40;99.90
51567;DHT22;37657;53.182;5.638;2023-04-01T09:22:42;11.20;99.90
51567;DHT22;37657;53.182;5.638;2023-04-01T09:28:20;11.00;99.90
51567;DHT22;37657;53.182;5.638;2023-04-01T09:31:10;11.20;99.90
51567;DHT22;37657;53.182;5.638;2023-04-01T09:39:38;11.40;99.90
51567;DHT22;37657;53.182;5.638;2023-04-01T09:42:42;11.30;99.90
51567;DHT22;37657;53.182;5.638;2023-04-01T09:45:21;11.40;99.90
51567;DHT22;37657;53.182;5.638;2023-04-01T09:47:52;11.30;99.90
51567;DHT22;37657;53.182;5.638;2023-04-01T09:50:29;11.10;99.90
51567;DHT22;37657;53.182;5.638;2023-04-01T09:58:58;11.20;99.90
51567;DHT22;37657;53.182;5.638;2023-04-01T10:07:59;11.10;99.90
51567;DHT22;37657;53.182;5.638;2023-04-01T10:16:23;11.30;99.90
51567;DHT22;37657;53.182;5.638;2023-04-01T10:21:46;11.10;99.90
51567;DHT22;37657;53.182;5.638;2023-04-01T10:27:20;11.30;99.90
51567;DHT22;37657;53.182;5.638;2023-04-01T10:30:05;11.20;99.90
51567;DHT22;37657;53.182;5.638;2023-04-01T10:36:13;11.40;99.90
51567;DHT22;37657;53.182;5.638;2023-04-01T10:41:57;11.20;99.90
51567;DHT22;37657;53.182;5.638;2023-04-01T10:44:52;11.10;99.90
51567;DHT22;37657;53.182;5.638;2023-04-01T10:47:39;11.20;99.90
51567;DHT22;37657;53.182;5.638;2023-04-01T10:50:16;11.10;99.90
51567;DHT22;37657;53.182;5.638;2023-04-01T11:04:24;11.00;99.90
51567;DHT22;37657;53.182;5.638;2023-04-01T11:15:57;10.80;99.90
51567;DHT22;37657;53.182;5.638;2023-04-01T11:27:25;10.90;99.90
51567;DHT22;37657;53.182;5.638;2023-04-01T11:30:02;11.00;99.90
51567;DHT22;37657;53.182;5.638;2023-04-01T11:32:46;10.90;99.90
51567;DHT22;37657;53.182;5.638;2023-04-01T11:35:39;10.80;99.90
51567;DHT22;37657;53.182;5.638;2023-04-01T11:55:12;10.80;99.90
51567;DHT22;37657;53.182;5.638;2023-04-01T11:57:46;10.90;99.90
51567;DHT22;37657;53.182;5.638;2023-04-01T12:06:25;10.80;99.90
51567;DHT22;37657;53.182;5.638;2023-04-01T12:15:12;10.70;99.90
51567;DHT22;37657;53.182;5.638;2023-04-01T12:18:06;10.70;99.90
51567;DHT22;37657;53.182;5.638;2023-04-01T12:26:25;10.60;99.90
51567;DHT22;37657;53.182;5.638;2023-04-01T12:29:12;10.70;99.90
51567;DHT22;37657;53.182;5.638;2023-04-01T12:43:16;10.60;99.90
51567;DHT22;37657;53.182;5.638;2023-04-01T12:46:24;10.70;99.90
51567;DHT22;37657;53.182;5.638;2023-04-01T12:49:23;10.60;99.90
51567;DHT22;37657;53.182;5.638;2023-04-01T12:52:04;10.50;99.90
51567;DHT22;37657;53.182;5.638;2023-04-01T12:57:53;10.40;99.90
51567;DHT22;37657;53.182;5.638;2023-04-01T13:08:38;10.40;99.90
51567;DHT22;37657;53.182;5.638;2023-04-01T13:16:43;10.60;99.90
51567;DHT22;37657;53.182;5.638;2023-04-01T13:19:19;10.70;99.90
51567;DHT22;37657;53.182;5.638;2023-04-01T13:21:55;10.60;99.90
51567;DHT22;37657;53.182;5.638;2023-04-01T13:24:45;10.50;99.90
51567;DHT22;37657;53.182;5.638;2023-04-01T13:27:22;10.40;99.90
51567;DHT22;37657;53.182;5.638;2023-04-01T13:30:19;10.50;99.90
51567;DHT22;37657;53.182;5.638;2023-04-01T13:35:48;10.40;99.90
51567;DHT22;37657;53.182;5.638;2023-04-01T13:44:21;10.30;99.90
51567;DHT22;37657;53.182;5.638;2023-04-01T13:50:38;10.40;99.90
51567;DHT22;37657;53.182;5.638;2023-04-01T13:53:30;10.40;99.90
51567;DHT22;37657;53.182;5.638;2023-04-01T13:58:50;10.40;99.90
51567;DHT22;37657;53.182;5.638;2023-04-01T14:09:51;10.20;99.90
51567;DHT22;37657;53.182;5.638;2023-04-01T14:12:59;10.30;99.90
51567;DHT22;37657;53.182;5.638;2023-04-01T14:15:39;10.10;99.90
51567;DHT22;37657;53.182;5.638;2023-04-01T14:26:13;10.00;99.90
51567;DHT22;37657;53.182;5.638;2023-04-01T14:31:47;10.00;99.90
51567;DHT22;37657;53.182;5.638;2023-04-01T14:42:45;9.90;99.90
51567;DHT22;37657;53.182;5.638;2023-04-01T14:45:46;10.00;99.90
51567;DHT22;37657;53.182;5.638;2023-04-01T14:48:28;9.90;99.90
51567;DHT22;37657;53.182;5.638;2023-04-01T14:54:00;9.90;99.90
51567;DHT22;37657;53.182;5.638;2023-04-01T14:56:46;9.80;99.90
51567;DHT22;37657;53.182;5.638;2023-04-01T15:05:11;9.60;99.90
51567;DHT22;37657;53.182;5.638;2023-04-01T15:08:03;9.60;99.90
51567;DHT22;37657;53.182;5.638;2023-04-01T15:10:53;9.50;99.90
51567;DHT22;37657;53.182;5.638;2023-04-01T15:21:50;9.50;99.90
51567;DHT22;37657;53.182;5.638;2023-04-01T15:36:26;9.30;99.90
51567;DHT22;37657;53.182;5.638;2023-04-01T15:42:15;9.20;99.90
51567;DHT22;37657;53.182;5.638;2023-04-01T15:47:27;9.10;99.90
51567;DHT22;37657;53.182;5.638;2023-04-01T15:52:45;9.10;99.90
51567;DHT22;37657;53.182;5.638;2023-04-01T15:58:30;9.00;99.90
51567;DHT22;37657;53.182;5.638;2023-04-01T16:01:25;8.90;99.90
51567;DHT22;37657;53.182;5.638;2023-04-01T16:09:38;8.80;99.90
51567;DHT22;37657;53.182;5.638;2023-04-01T16:15:09;8.80;99.90
51567;DHT22;37657;53.182;5.638;2023-04-01T16:20:21;8.70;99.90
51567;DHT22;37657;53.182;5.638;2023-04-01T16:22:57;8.70;99.90
51567;DHT22;37657;53.182;5.638;2023-04-01T16:25:39;8.70;99.90
51567;DHT22;37657;53.182;5.638;2023-04-01T16:28:37;8.70;99.90
51567;DHT22;37657;53.182;5.638;2023-04-01T16:31:23;8.60;99.90
51567;DHT22;37657;53.182;5.638;2023-04-01T16:34:21;8.60;99.90
51567;DHT22;37657;53.182;5.638;2023-04-01T16:37:04;8.50;99.90
51567;DHT22;37657;53.182;5.638;2023-04-01T16:39:45;8.50;99.90
51567;DHT22;37657;53.182;5.638;2023-04-01T16:45:06;8.50;99.90
51567;DHT22;37657;53.182;5.638;2023-04-01T16:47:49;8.50;99.90
51567;DHT22;37657;53.182;5.638;2023-04-01T16:50:24;8.50;99.90
51567;DHT22;37657;53.182;5.638;2023-04-01T16:53:10;8.50;99.90
51567;DHT22;37657;53.182;5.638;2023-04-01T16:56:07;8.50;99.90
51567;DHT22;37657;53.182;5.638;2023-04-01T16:58:42;8.40;99.90
51567;DHT22;37657;53.182;5.638;2023-04-01T17:01:16;8.30;99.90
51567;DHT22;37657;53.182;5.638;2023-04-01T17:03:46;8.30;99.90
51567;DHT22;37657;53.182;5.638;2023-04-01T17:06:45;8.20;99.90
51567;DHT22;37657;53.182;5.638;2023-04-01T17:09:19;8.20;99.90
51567;DHT22;37657;53.182;5.638;2023-04-01T17:35:59;8.00;99.90
51567;DHT22;37657;53.182;5.638;2023-04-01T17:41:57;7.90;99.90
51567;DHT22;37657;53.182;5.638;2023-04-01T17:52:47;7.80;99.90
51567;DHT22;37657;53.182;5.638;2023-04-01T18:03:54;7.70;99.90
51567;DHT22;37657;53.182;5.638;2023-04-01T18:06:47;7.70;99.90
51567;DHT22;37657;53.182;5.638;2023-04-01T18:09:33;7.70;99.90
51567;DHT22;37657;53.182;5.638;2023-04-01T18:12:31;7.60;99.90
51567;DHT22;37657;53.182;5.638;2023-04-01T18:18:10;7.60;99.90
51567;DHT22;37657;53.182;5.638;2023-04-01T18:20:58;7.50;99.90
51567;DHT22;37657;53.182;5.638;2023-04-01T18:23:36;7.60;99.90
51567;DHT22;37657;53.182;5.638;2023-04-01T18:26:13;7.50;99.90
51567;DHT22;37657;53.182;5.638;2023-04-01T18:28:56;7.60;99.90
51567;DHT22;37657;53.182;5.638;2023-04-01T18:31:26;7.60;99.90
51567;DHT22;37657;53.182;5.638;2023-04-01T18:34:06;7.60;99.90
51567;DHT22;37657;53.182;5.638;2023-04-01T18:39:32;7.50;99.90
51567;DHT22;37657;53.182;5.638;2023-04-01T18:44:57;7.50;99.90
51567;DHT22;37657;53.182;5.638;2023-04-01T18:47:45;7.60;99.90
51567;DHT22;37657;53.182;5.638;2023-04-01T18:50:22;7.60;99.90
51567;DHT22;37657;53.182;5.638;2023-04-01T18:53:23;7.50;99.90
51567;DHT22;37657;53.182;5.638;2023-04-01T18:55:59;7.50;99.90
51567;DHT22;37657;53.182;5.638;2023-04-01T19:01:23;7.50;99.90
51567;DHT22;37657;53.182;5.638;2023-04-01T19:06:52;7.50;99.90
51567;DHT22;37657;53.182;5.638;2023-04-01T19:09:44;7.50;99.90
51567;DHT22;37657;53.182;5.638;2023-04-01T19:12:18;7.50;99.90
51567;DHT22;37657;53.182;5.638;2023-04-01T19:15:06;7.50;99.90
51567;DHT22;37657;53.182;5.638;2023-04-01T19:20:26;7.40;99.90
51567;DHT22;37657;53.182;5.638;2023-04-01T19:23:01;7.40;99.90
51567;DHT22;37657;53.182;5.638;2023-04-01T19:25:39;7.40;99.90
51567;DHT22;37657;53.182;5.638;2023-04-01T19:31:24;7.40;99.90
51567;DHT22;37657;53.182;5.638;2023-04-01T19:37:05;7.30;99.90
51567;DHT22;37657;53.182;5.638;2023-04-01T19:39:49;7.30;99.90
51567;DHT22;37657;53.182;5.638;2023-04-01T19:42:32;7.30;99.90
51567;DHT22;37657;53.182;5.638;2023-04-01T19:50:53;7.20;99.90
51567;DHT22;37657;53.182;5.638;2023-04-01T19:53:26;7.20;99.90
51567;DHT22;37657;53.182;5.638;2023-04-01T20:01:51;7.10;99.90
51567;DHT22;37657;53.182;5.638;2023-04-01T20:04:41;7.20;99.90
51567;DHT22;37657;53.182;5.638;2023-04-01T20:09:57;7.20;99.90
51567;DHT22;37657;53.182;5.638;2023-04-01T20:14:51;7.20;99.90
51567;DHT22;37657;53.182;5.638;2023-04-01T20:17:22;7.20;99.90
51567;DHT22;37657;53.182;5.638;2023-04-01T20:22:29;7.20;99.90
51567;DHT22;37657;53.182;5.638;2023-04-01T20:25:02;7.20;99.90
51567;DHT22;37657;53.182;5.638;2023-04-01T20:27:35;7.10;99.90
51567;DHT22;37657;53.182;5.638;2023-04-01T20:30:33;7.00;99.90
51567;DHT22;37657;53.182;5.638;2023-04-01T20:33:46;7.00;99.90
51567;DHT22;37657;53.182;5.638;2023-04-01T20:36:49;7.00;99.90
51567;DHT22;37657;53.182;5.638;2023-04-01T20:47:56;6.90;99.90
51567;DHT22;37657;53.182;5.638;2023-04-01T20:50:58;6.90;99.90
51567;DHT22;37657;53.182;5.638;2023-04-01T20:53:43;6.80;99.90
51567;DHT22;37657;53.182;5.638;2023-04-01T20:56:29;6.90;99.90
51567;DHT22;37657;53.182;5.638;2023-04-01T21:08:08;6.80;99.90
51567;DHT22;37657;53.182;5.638;2023-04-01T21:10:43;6.90;99.90
51567;DHT22;37657;53.182;5.638;2023-04-01T21:21:53;6.80;99.90
51567;DHT22;37657;53.182;5.638;2023-04-01T21:24:44;6.90;99.90
51567;DHT22;37657;53.182;5.638;2023-04-01T21:35:32;6.80;99.90
51567;DHT22;37657;53.182;5.638;2023-04-01T21:44:01;6.70;99.90
51567;DHT22;37657;53.182;5.638;2023-04-01T21:50:19;6.60;99.90
51567;DHT22;37657;53.182;5.638;2023-04-01T22:01:58;6.50;99.90
51567;DHT22;37657;53.182;5.638;2023-04-01T22:07:13;6.50;99.90
51567;DHT22;37657;53.182;5.638;2023-04-01T22:12:35;6.40;99.90
51567;DHT22;37657;53.182;5.638;2023-04-01T22:15:20;6.50;99.90
51567;DHT22;37657;53.182;5.638;2023-04-01T22:21:09;6.40;99.90
51567;DHT22;37657;53.182;5.638;2023-04-01T22:23:53;6.50;99.90
51567;DHT22;37657;53.182;5.638;2023-04-01T22:26:33;6.50;99.90
51567;DHT22;37657;53.182;5.638;2023-04-01T22:29:16;6.50;99.90
51567;DHT22;37657;53.182;5.638;2023-04-01T22:31:52;6.50;99.90
51567;DHT22;37657;53.182;5.638;2023-04-01T22:37:37;6.50;99.90
51567;DHT22;37657;53.182;5.638;2023-04-01T22:42:47;6.40;99.90
51567;DHT22;37657;53.182;5.638;2023-04-01T22:51:07;6.40;99.90
51567;DHT22;37657;53.182;5.638;2023-04-01T22:53:46;6.30;99.90
51567;DHT22;37657;53.182;5.638;2023-04-01T22:56:18;6.30;99.90
51567;DHT22;37657;53.182;5.638;2023-04-01T22:59:26;6.20;99.90
51567;DHT22;37657;53.182;5.638;2023-04-01T23:01:57;6.10;99.90
51567;DHT22;37657;53.182;5.638;2023-04-01T23:04:31;6.10;99.90
51567;DHT22;37657;53.182;5.638;2023-04-01T23:07:00;5.90;99.90
51567;DHT22;37657;53.182;5.638;2023-04-01T23:09:27;5.80;99.90
51567;DHT22;37657;53.182;5.638;2023-04-01T23:12:14;5.70;99.90
51567;DHT22;37657;53.182;5.638;2023-04-01T23:15:10;5.60;99.90
51567;DHT22;37657;53.182;5.638;2023-04-01T23:17:52;5.50;99.90
51567;DHT22;37657;53.182;5.638;2023-04-01T23:20:56;5.50;99.90
51567;DHT22;37657;53.182;5.638;2023-04-01T23:23:33;5.40;99.90
51567;DHT22;37657;53.182;5.638;2023-04-01T23:28:47;5.30;99.90
51567;DHT22;37657;53.182;5.638;2023-04-01T23:33:58;5.20;99.90
51567;DHT22;37657;53.182;5.638;2023-04-01T23:36:25;5.20;99.90
51567;DHT22;37657;53.182;5.638;2023-04-01T23:38:51;5.20;99.90
51567;DHT22;37657;53.182;5.638;2023-04-01T23:41:23;5.20;99.90
51567;DHT22;37657;53.182;5.638;2023-04-01T23:44:07;5.10;99.90
51567;DHT22;37657;53.182;5.638;2023-04-01T23:46:35;5.10;99.90
51567;DHT22;37657;53.182;5.638;2023-04-01T23:49:03;5.00;99.90
51567;DHT22;37657;53.182;5.638;2023-04-01T23:51:36;4.90;99.90
51567;DHT22;37657;53.182;5.638;2023-04-01T23:54:28;5.00;99.90
51567;DHT22;37657;53.182;5.638;2023-04-01T23:56:56;4.90;99.90
51567;DHT22;37657;53.182;5.638;2023-04-01T23:59:33;4.90;99.90
